Terminal Aerodrome Forecast
Issued by NWS Cleveland, OH

Home | Current Version | Previous Version | Text Only | Print | Product List | Glossary On
Versions: 1 2 3 4 5 6 7 8 9 10 11 12 13 14 15
250
FTUS41 KCLE 101720
TAFTOL
TAF
KTOL 101720Z 1018/1118 26012KT P6SM SCT100
     FM102200 24008KT P6SM OVC035
     FM110300 24005KT 6SM -SN OVC025
      TEMPO 1104/1106 3SM -SN OVC015
     FM110600 18006KT 2SM -SN OVC015
      TEMPO 1106/1110 1SM -SN=

USA.gov is the U.S. government's official web portal to all federal, state and local government web resources and services.